Terminal Aerodrome Forecast
Issued by NWS Brownsville, TX

Home | Current Version | Previous Version | Text Only | Print | Product List | Glossary On
Versions: 1 2 3 4 5 6 7 8 9 10 11 12 13 14 15 16 17 18 19 20 21 22 23 24 25 26 27 28 29 30 31 32
000
FTUS44 KBRO 191836 AAB
TAFMFE
TAF AMD
KMFE 191836Z 1919/2018 34006KT 4SM -RA OVC013
      TEMPO 1919/1922 2SM -RA BR BKN006
     FM200900 07004KT 6SM -RA OVC015
      TEMPO 2009/2012 OVC007
     FM201300 06004KT P6SM -RA OVC007
     FM201400 05005KT P6SM -RA OVC007
     FM201600 08006KT P6SM OVC015=

USA.gov is the U.S. government's official web portal to all federal, state and local government web resources and services.